createdAt,value
2018-10-12T00:00:47.158Z,13.90
2018-10-12T00:03:15.297Z,13.80
2018-10-12T00:05:43.731Z,13.80
2018-10-12T00:08:11.934Z,13.80
2018-10-12T00:10:40.130Z,13.70
2018-10-12T00:13:08.317Z,13.70
2018-10-12T00:15:36.484Z,13.70
2018-10-12T00:18:04.677Z,13.70
2018-10-12T00:20:32.836Z,13.60
2018-10-12T00:23:00.968Z,13.60
2018-10-12T00:25:29.188Z,13.50
2018-10-12T00:27:57.342Z,13.50
2018-10-12T00:30:25.476Z,13.50
2018-10-12T00:32:53.634Z,13.50
2018-10-12T00:35:21.796Z,13.50
2018-10-12T00:37:50.064Z,13.50
2018-10-12T00:40:18.187Z,13.50
2018-10-12T00:42:47.666Z,13.50
2018-10-12T00:45:15.784Z,13.50
2018-10-12T00:47:43.920Z,13.50
2018-10-12T00:50:12.089Z,13.50
2018-10-12T00:52:40.230Z,13.50
2018-10-12T00:55:08.426Z,13.40
2018-10-12T00:57:37.380Z,13.40
2018-10-12T01:00:05.542Z,13.40
2018-10-12T01:02:33.702Z,13.40
2018-10-12T01:05:01.827Z,13.40
2018-10-12T01:07:29.984Z,13.40
2018-10-12T01:09:58.226Z,13.30
2018-10-12T01:12:32.438Z,13.30
2018-10-12T01:15:01.140Z,13.20
2018-10-12T01:17:29.826Z,13.20
2018-10-12T01:19:58.219Z,13.20
2018-10-12T01:22:27.421Z,13.20
2018-10-12T01:24:56.196Z,13.10
2018-10-12T01:27:24.418Z,13.10
2018-10-12T01:29:53.067Z,13.10
2018-10-12T01:32:26.800Z,13.00
2018-10-12T01:34:55.151Z,13.00
2018-10-12T01:37:23.736Z,12.90
2018-10-12T01:39:51.909Z,12.90
2018-10-12T01:42:20.008Z,12.90
2018-10-12T01:44:48.376Z,12.90
2018-10-12T01:47:16.557Z,12.90
2018-10-12T01:49:44.664Z,12.80
2018-10-12T01:52:13.694Z,12.80
2018-10-12T01:54:42.217Z,12.80
2018-10-12T01:57:11.032Z,12.90
2018-10-12T01:59:39.333Z,12.90
2018-10-12T02:02:07.746Z,12.80
2018-10-12T02:04:35.873Z,12.90
2018-10-12T02:07:04.373Z,12.80
2018-10-12T02:09:32.623Z,12.80
2018-10-12T02:12:00.789Z,12.80
2018-10-12T02:14:29.501Z,12.80
2018-10-12T02:16:57.630Z,12.80
2018-10-12T02:19:25.829Z,12.80
2018-10-12T02:21:53.934Z,12.80
2018-10-12T02:24:22.074Z,12.80
2018-10-12T02:26:50.830Z,12.70
2018-10-12T02:29:18.963Z,12.80
2018-10-12T02:31:47.095Z,12.80
2018-10-12T02:34:15.228Z,12.80
2018-10-12T02:36:43.356Z,12.80
2018-10-12T02:39:13.854Z,12.70
2018-10-12T02:41:42.003Z,12.70
2018-10-12T02:44:10.698Z,12.70
2018-10-12T02:46:38.900Z,12.70
2018-10-12T02:49:07.524Z,12.70
2018-10-12T02:51:35.854Z,12.60
2018-10-12T02:54:03.952Z,12.60
2018-10-12T02:56:32.104Z,12.60
2018-10-12T02:59:00.214Z,12.60
2018-10-12T03:01:28.332Z,12.60
2018-10-12T03:03:56.538Z,12.50
2018-10-12T03:06:24.717Z,12.50
2018-10-12T03:08:52.898Z,12.50
2018-10-12T03:11:21.077Z,12.50
2018-10-12T03:13:49.253Z,12.50
2018-10-12T03:16:18.051Z,12.50
2018-10-12T03:18:46.185Z,12.50
2018-10-12T03:21:14.379Z,12.50
2018-10-12T03:23:42.547Z,12.40
2018-10-12T03:26:10.704Z,12.40
2018-10-12T03:28:38.878Z,12.40
2018-10-12T03:31:07.528Z,12.40
2018-10-12T03:33:36.063Z,12.40
2018-10-12T03:36:04.873Z,12.30
2018-10-12T03:38:33.056Z,12.30
2018-10-12T03:41:01.191Z,12.30
2018-10-12T03:43:29.459Z,12.30
2018-10-12T03:45:57.623Z,12.30
2018-10-12T03:48:25.816Z,12.30
2018-10-12T03:50:53.960Z,12.30
2018-10-12T03:53:22.095Z,12.20
2018-10-12T03:55:50.236Z,12.20
2018-10-12T03:58:18.411Z,12.20
2018-10-12T04:00:46.593Z,12.20
2018-10-12T04:03:14.837Z,12.20
2018-10-12T04:05:42.991Z,12.20
2018-10-12T04:08:11.184Z,12.20
2018-10-12T04:10:39.335Z,12.20
2018-10-12T04:13:07.970Z,12.10
2018-10-12T04:15:36.173Z,12.10
2018-10-12T04:18:04.457Z,12.10
2018-10-12T04:20:32.588Z,12.00
2018-10-12T04:23:00.697Z,12.00
2018-10-12T04:25:28.855Z,12.00
2018-10-12T04:27:57.066Z,12.00
2018-10-12T04:30:25.239Z,11.90
2018-10-12T04:32:53.401Z,11.90
2018-10-12T04:35:25.654Z,11.90
2018-10-12T04:37:53.914Z,11.90
2018-10-12T04:41:25.680Z,11.80
2018-10-12T04:43:55.360Z,11.80
2018-10-12T04:46:25.746Z,11.80
2018-10-12T04:48:54.008Z,11.80
2018-10-12T04:51:33.884Z,11.80
2018-10-12T04:54:02.085Z,11.80
2018-10-12T04:56:30.276Z,11.80
2018-10-12T04:58:58.516Z,11.80
2018-10-12T05:01:26.640Z,11.70
2018-10-12T05:03:54.812Z,11.70
2018-10-12T05:06:22.988Z,11.70
2018-10-12T05:08:51.158Z,11.70
2018-10-12T05:11:19.309Z,11.70
2018-10-12T05:13:47.522Z,11.70
2018-10-12T05:16:15.818Z,11.70
2018-10-12T05:18:44.033Z,11.70
2018-10-12T05:21:12.168Z,11.70
2018-10-12T05:23:40.297Z,11.70
2018-10-12T05:26:08.521Z,11.70
2018-10-12T05:28:37.683Z,11.70
2018-10-12T05:31:06.046Z,11.70
2018-10-12T05:33:34.239Z,11.70
2018-10-12T05:36:02.533Z,11.70
2018-10-12T05:38:31.719Z,11.70
2018-10-12T05:41:00.204Z,11.70
2018-10-12T05:43:28.761Z,11.70
2018-10-12T05:45:56.741Z,11.70
2018-10-12T05:48:36.352Z,11.70
2018-10-12T05:51:05.224Z,11.70
2018-10-12T05:53:34.473Z,11.80
2018-10-12T05:56:02.902Z,11.80
2018-10-12T05:58:31.382Z,11.80
2018-10-12T06:00:59.704Z,11.80
2018-10-12T06:03:27.875Z,11.80
2018-10-12T06:05:56.113Z,11.80
2018-10-12T06:08:24.265Z,11.90
2018-10-12T06:10:52.397Z,11.90
2018-10-12T06:13:20.567Z,12.00
2018-10-12T06:15:48.834Z,12.00
2018-10-12T06:18:16.986Z,12.00
2018-10-12T06:20:45.145Z,12.00
2018-10-12T06:23:13.366Z,12.10
2018-10-12T06:25:41.539Z,12.10
2018-10-12T06:28:09.762Z,12.20
2018-10-12T06:30:37.909Z,12.20
2018-10-12T06:33:06.399Z,12.40
2018-10-12T06:35:34.568Z,12.50
2018-10-12T06:38:02.729Z,12.60
2018-10-12T06:40:32.277Z,12.80
2018-10-12T06:43:00.478Z,12.90
2018-10-12T06:45:28.624Z,13.00
2018-10-12T06:47:56.763Z,13.10
2018-10-12T06:50:24.936Z,13.20
2018-10-12T06:52:53.061Z,13.20
2018-10-12T06:55:21.266Z,13.30
2018-10-12T06:57:49.451Z,13.40
2018-10-12T07:00:17.747Z,13.40
2018-10-12T07:02:45.879Z,13.50
2018-10-12T07:05:14.031Z,13.50
2018-10-12T07:07:42.210Z,13.60
2018-10-12T07:10:10.445Z,13.60
2018-10-12T07:12:38.596Z,13.60
2018-10-12T07:15:07.278Z,13.60
2018-10-12T07:17:35.439Z,13.70
2018-10-12T07:20:03.877Z,13.80
2018-10-12T07:22:32.038Z,13.90
2018-10-12T07:25:00.289Z,13.90
2018-10-12T07:27:28.463Z,14.00
2018-10-12T07:29:56.645Z,14.10
2018-10-12T07:32:24.823Z,14.10
2018-10-12T07:34:53.011Z,14.20
2018-10-12T07:37:21.279Z,14.30
2018-10-12T07:39:49.411Z,14.40
2018-10-12T07:42:17.603Z,14.50
2018-10-12T07:44:45.759Z,14.60
2018-10-12T07:47:13.989Z,14.70
2018-10-12T07:49:42.183Z,14.80
2018-10-12T07:52:10.349Z,14.90
2018-10-12T07:54:38.527Z,15.00
2018-10-12T07:57:11.441Z,15.10
2018-10-12T07:59:40.343Z,15.20
2018-10-12T08:02:10.531Z,15.30
2018-10-12T08:04:40.163Z,15.40
2018-10-12T08:07:08.419Z,15.50
2018-10-12T08:09:37.070Z,15.60
2018-10-12T08:12:05.255Z,15.70
2018-10-12T08:14:33.434Z,15.80
2018-10-12T08:17:01.632Z,15.90
2018-10-12T08:19:29.829Z,16.00
2018-10-12T08:21:58.113Z,16.10
2018-10-12T08:24:26.281Z,16.20
2018-10-12T08:26:54.435Z,16.30
2018-10-12T08:29:24.423Z,16.40
2018-10-12T08:31:52.627Z,16.50
2018-10-12T08:34:20.800Z,16.70
2018-10-12T08:36:48.979Z,16.80
2018-10-12T08:39:17.110Z,16.90
2018-10-12T08:41:45.345Z,17.10
2018-10-12T08:44:13.459Z,17.20
2018-10-12T08:46:41.653Z,17.20
2018-10-12T08:49:09.888Z,17.30
2018-10-12T08:51:38.056Z,17.40
2018-10-12T08:54:06.196Z,17.50
2018-10-12T08:56:34.903Z,17.70
2018-10-12T08:59:03.115Z,17.80
2018-10-12T09:01:31.487Z,17.80
2018-10-12T09:04:00.053Z,17.90
2018-10-12T09:06:28.618Z,17.90
2018-10-12T09:08:56.791Z,18.00
2018-10-12T09:11:24.940Z,18.10
2018-10-12T09:13:53.180Z,18.10
2018-10-12T09:16:21.417Z,18.20
2018-10-12T09:18:49.478Z,18.20
2018-10-12T09:21:17.994Z,18.30
2018-10-12T09:23:46.163Z,18.40
2018-10-12T09:26:14.328Z,18.50
2018-10-12T09:28:42.444Z,18.50
2018-10-12T09:31:10.605Z,18.60
2018-10-12T09:33:38.773Z,18.60
2018-10-12T09:36:06.969Z,18.80
2018-10-12T09:38:35.365Z,18.90
2018-10-12T09:41:03.583Z,18.90
2018-10-12T09:43:31.752Z,19.00
2018-10-12T09:45:59.974Z,19.00
2018-10-12T09:48:28.126Z,19.10
2018-10-12T09:50:56.481Z,19.20
2018-10-12T09:53:24.970Z,19.20
2018-10-12T09:55:53.227Z,19.30
2018-10-12T09:58:21.936Z,19.40
2018-10-12T10:00:55.679Z,19.40
2018-10-12T10:03:29.349Z,19.50
2018-10-12T10:05:57.606Z,19.50
2018-10-12T10:08:25.979Z,19.50
2018-10-12T10:10:54.082Z,19.60
2018-10-12T10:13:22.264Z,19.60
2018-10-12T10:15:50.633Z,19.70
2018-10-12T10:18:18.852Z,19.80
2018-10-12T10:20:46.986Z,19.80
2018-10-12T10:23:15.339Z,19.90
2018-10-12T10:25:43.836Z,19.90
2018-10-12T10:28:12.046Z,19.90
2018-10-12T10:30:40.261Z,20.00
2018-10-12T10:33:08.591Z,20.00
2018-10-12T10:35:36.972Z,20.00
2018-10-12T10:38:05.057Z,20.10
2018-10-12T10:40:33.258Z,20.10
2018-10-12T10:43:01.395Z,20.10
2018-10-12T10:45:29.536Z,20.10
2018-10-12T10:47:57.787Z,20.20
2018-10-12T10:50:26.089Z,20.20
2018-10-12T10:52:54.247Z,20.20
2018-10-12T10:55:22.506Z,20.30
2018-10-12T10:57:50.712Z,20.30
2018-10-12T11:00:18.938Z,20.20
2018-10-12T11:02:47.165Z,20.30
2018-10-12T11:05:15.369Z,20.40
2018-10-12T11:07:43.624Z,20.40
2018-10-12T11:10:11.856Z,20.40
2018-10-12T11:12:40.225Z,20.40
2018-10-12T11:15:08.429Z,20.50
2018-10-12T11:17:36.696Z,20.60
2018-10-12T11:20:04.924Z,20.60
2018-10-12T11:22:33.206Z,20.70
2018-10-12T11:25:01.399Z,20.70
2018-10-12T11:27:29.732Z,20.70
2018-10-12T11:29:57.926Z,20.70
2018-10-12T11:32:26.112Z,20.70
2018-10-12T11:34:54.387Z,20.80
2018-10-12T11:37:22.582Z,20.90
2018-10-12T11:39:50.758Z,20.90
2018-10-12T11:42:19.064Z,20.90
2018-10-12T11:44:47.284Z,21.10
2018-10-12T11:47:15.465Z,21.10
2018-10-12T11:49:43.676Z,21.00
2018-10-12T11:52:11.942Z,21.10
2018-10-12T11:54:40.074Z,21.00
2018-10-12T11:57:08.354Z,21.10
2018-10-12T11:59:36.548Z,21.20
2018-10-12T12:02:04.729Z,21.30
2018-10-12T12:04:32.993Z,21.30
2018-10-12T12:07:01.455Z,21.40
2018-10-12T12:09:29.725Z,21.40
2018-10-12T12:11:57.931Z,21.50
2018-10-12T12:14:26.118Z,21.60
2018-10-12T12:16:54.293Z,21.70
2018-10-12T12:19:22.656Z,21.70
2018-10-12T12:21:50.880Z,21.70
2018-10-12T12:24:19.114Z,21.70
2018-10-12T12:26:47.389Z,21.70
2018-10-12T12:29:15.682Z,21.60
2018-10-12T12:31:43.899Z,21.60
2018-10-12T12:34:12.183Z,21.70
2018-10-12T12:36:40.363Z,21.70
2018-10-12T12:39:08.626Z,21.70
2018-10-12T12:41:36.859Z,21.70
2018-10-12T12:44:04.990Z,21.70
2018-10-12T12:46:33.236Z,21.70
2018-10-12T12:49:01.788Z,21.70
2018-10-12T12:51:29.686Z,21.80
2018-10-12T12:53:58.036Z,21.80
2018-10-12T12:56:26.196Z,21.70
2018-10-12T12:58:54.376Z,21.80
2018-10-12T13:01:22.763Z,21.80
2018-10-12T13:03:51.021Z,21.90
2018-10-12T13:06:19.234Z,21.90
2018-10-12T13:08:47.450Z,21.90
2018-10-12T13:11:15.648Z,21.90
2018-10-12T13:13:43.864Z,21.90
2018-10-12T13:16:11.995Z,22.00
2018-10-12T13:18:40.326Z,22.00
2018-10-12T13:21:08.723Z,22.00
2018-10-12T13:23:37.006Z,21.90
2018-10-12T13:26:05.391Z,21.80
2018-10-12T13:28:33.615Z,21.80
2018-10-12T13:31:01.926Z,21.80
2018-10-12T13:33:30.230Z,21.80
2018-10-12T13:35:58.578Z,21.80
2018-10-12T13:38:26.757Z,21.80
2018-10-12T13:40:55.037Z,21.90
2018-10-12T13:43:23.262Z,21.90
2018-10-12T13:45:51.481Z,22.00
2018-10-12T13:48:19.713Z,22.00
2018-10-12T13:50:47.960Z,22.40
2018-10-12T13:53:16.198Z,22.80
2018-10-12T13:55:44.466Z,22.80
2018-10-12T13:58:12.808Z,22.70
2018-10-12T14:00:40.998Z,22.60
2018-10-12T14:03:09.189Z,22.50
2018-10-12T14:05:37.400Z,22.50
2018-10-12T14:08:05.647Z,22.40
2018-10-12T14:10:33.822Z,22.30
2018-10-12T14:13:02.112Z,22.30
2018-10-12T14:15:30.354Z,22.30
2018-10-12T14:17:58.550Z,22.30
2018-10-12T14:20:26.792Z,22.30
2018-10-12T14:22:55.020Z,22.20
2018-10-12T14:25:23.393Z,22.20
2018-10-12T14:27:51.612Z,22.10
2018-10-12T14:30:19.864Z,22.10
2018-10-12T14:32:48.098Z,22.10
2018-10-12T14:35:16.452Z,22.10
2018-10-12T14:37:44.685Z,22.10
2018-10-12T14:40:13.068Z,22.10
2018-10-12T14:42:41.881Z,22.10
2018-10-12T14:45:10.539Z,22.00
2018-10-12T14:47:38.778Z,21.90
2018-10-12T14:50:07.264Z,21.90
2018-10-12T14:52:35.443Z,21.80
2018-10-12T14:55:03.748Z,21.70
2018-10-12T14:57:32.028Z,21.60
2018-10-12T15:00:00.167Z,21.50
2018-10-12T15:02:28.400Z,21.60
2018-10-12T15:04:56.662Z,21.60
2018-10-12T15:07:25.036Z,21.60
2018-10-12T15:09:53.232Z,21.60
2018-10-12T15:12:21.618Z,21.50
2018-10-12T15:15:06.219Z,21.50
2018-10-12T15:17:34.440Z,21.40
2018-10-12T15:20:02.885Z,21.30
2018-10-12T15:22:31.327Z,21.30
2018-10-12T15:24:59.512Z,21.40
2018-10-12T15:27:27.704Z,21.30
2018-10-12T15:29:56.624Z,21.30
2018-10-12T15:32:24.826Z,21.20
2018-10-12T15:34:52.995Z,21.10
2018-10-12T15:37:21.246Z,21.00
2018-10-12T15:39:49.439Z,20.90
2018-10-12T15:42:17.780Z,20.80
2018-10-12T15:44:46.075Z,20.70
2018-10-12T15:47:14.272Z,20.70
2018-10-12T15:49:42.485Z,20.60
2018-10-12T15:52:10.804Z,20.50
2018-10-12T15:54:39.198Z,20.40
2018-10-12T15:57:07.585Z,20.20
2018-10-12T15:59:35.919Z,20.10
2018-10-12T16:02:04.098Z,20.00
2018-10-12T16:04:32.230Z,20.00
2018-10-12T16:07:00.438Z,19.90
2018-10-12T16:09:28.617Z,19.80
2018-10-12T16:11:56.778Z,19.70
2018-10-12T16:14:25.063Z,19.60
2018-10-12T16:16:53.406Z,19.50
2018-10-12T16:19:21.633Z,19.40
2018-10-12T16:21:49.849Z,19.30
2018-10-12T16:24:18.096Z,19.20
2018-10-12T16:26:46.268Z,19.10
2018-10-12T16:29:14.573Z,19.10
2018-10-12T16:31:42.713Z,19.00
2018-10-12T16:34:11.056Z,18.90
2018-10-12T16:36:39.316Z,18.80
2018-10-12T16:39:08.361Z,18.80
2018-10-12T16:41:36.977Z,18.70
2018-10-12T16:44:05.243Z,18.60
2018-10-12T16:46:33.607Z,18.60
2018-10-12T16:49:01.948Z,18.50
2018-10-12T16:51:30.269Z,18.50
2018-10-12T16:53:58.462Z,18.40
2018-10-12T16:56:26.859Z,18.40
2018-10-12T16:58:55.082Z,18.30
2018-10-12T17:01:23.265Z,18.20
2018-10-12T17:03:51.575Z,18.20
2018-10-12T17:06:19.801Z,18.20
2018-10-12T17:08:48.090Z,18.10
2018-10-12T17:11:16.411Z,18.00
2018-10-12T17:13:44.690Z,18.00
2018-10-12T17:16:12.852Z,17.90
2018-10-12T17:18:41.108Z,18.00
2018-10-12T17:21:09.358Z,17.90
2018-10-12T17:23:37.574Z,17.80
2018-10-12T17:26:06.029Z,17.80
2018-10-12T17:28:34.261Z,17.80
2018-10-12T17:31:02.597Z,17.70
2018-10-12T17:33:31.000Z,17.70
2018-10-12T17:35:59.296Z,17.60
2018-10-12T17:38:27.506Z,17.60
2018-10-12T17:40:55.792Z,17.60
2018-10-12T17:43:24.753Z,17.60
2018-10-12T17:45:53.080Z,17.50
2018-10-12T17:48:21.387Z,17.50
2018-10-12T17:50:49.708Z,17.50
2018-10-12T17:53:17.938Z,17.40
2018-10-12T17:55:46.294Z,17.40
2018-10-12T17:58:14.478Z,17.40
2018-10-12T18:00:42.739Z,17.30
2018-10-12T18:03:11.238Z,17.20
2018-10-12T18:05:39.402Z,17.20
2018-10-12T18:08:07.695Z,17.10
2018-10-12T18:10:36.392Z,17.00
2018-10-12T18:13:04.609Z,17.00
2018-10-12T18:15:32.817Z,17.00
2018-10-12T18:18:01.015Z,16.90
2018-10-12T18:20:29.157Z,16.90
2018-10-12T18:22:57.483Z,16.80
2018-10-12T18:25:25.715Z,16.80
2018-10-12T18:27:54.020Z,16.80
2018-10-12T18:30:22.191Z,16.70
2018-10-12T18:32:50.445Z,16.70
2018-10-12T18:35:18.607Z,16.70
2018-10-12T18:37:46.736Z,16.60
2018-10-12T18:40:14.899Z,16.60
2018-10-12T18:42:43.093Z,16.50
2018-10-12T18:45:11.325Z,16.50
2018-10-12T18:47:39.676Z,16.50
2018-10-12T18:50:07.959Z,16.50
2018-10-12T18:52:36.957Z,16.40
2018-10-12T18:55:05.158Z,16.40
2018-10-12T18:57:34.251Z,16.40
2018-10-12T19:00:03.888Z,16.40
2018-10-12T19:02:32.868Z,16.40
2018-10-12T19:05:01.447Z,16.40
2018-10-12T19:07:29.741Z,16.40
2018-10-12T19:09:57.965Z,16.30
2018-10-12T19:12:26.375Z,16.30
2018-10-12T19:14:54.523Z,16.30
2018-10-12T19:17:22.871Z,16.20
2018-10-12T19:19:51.029Z,16.30
2018-10-12T19:22:19.293Z,16.20
2018-10-12T19:24:47.610Z,16.20
2018-10-12T19:27:15.785Z,16.20
2018-10-12T19:29:44.039Z,16.20
2018-10-12T19:32:12.249Z,16.10
2018-10-12T19:34:40.521Z,16.10
2018-10-12T19:37:08.928Z,16.00
2018-10-12T19:39:37.133Z,16.00
2018-10-12T19:42:05.325Z,16.00
2018-10-12T19:44:33.549Z,15.90
2018-10-12T19:47:01.735Z,15.90
2018-10-12T19:49:29.933Z,15.90
2018-10-12T19:51:58.129Z,15.90
2018-10-12T19:54:26.389Z,15.90
2018-10-12T19:56:54.659Z,15.80
2018-10-12T19:59:22.803Z,15.80
2018-10-12T20:01:51.101Z,15.80
2018-10-12T20:04:19.272Z,15.80
2018-10-12T20:06:47.549Z,15.80
2018-10-12T20:09:15.723Z,15.70
2018-10-12T20:11:43.889Z,15.70
2018-10-12T20:14:12.153Z,15.70
2018-10-12T20:16:41.717Z,15.70
2018-10-12T20:19:09.983Z,15.60
2018-10-12T20:21:38.124Z,15.60
2018-10-12T20:24:06.560Z,15.70
2018-10-12T20:26:34.715Z,15.60
2018-10-12T20:29:02.907Z,15.70
2018-10-12T20:31:31.197Z,15.70
2018-10-12T20:33:59.746Z,15.70
2018-10-12T20:36:28.700Z,15.70
2018-10-12T20:38:57.711Z,15.70
2018-10-12T20:41:25.982Z,15.70
2018-10-12T20:43:54.249Z,15.70
2018-10-12T20:46:22.737Z,15.70
2018-10-12T20:48:50.917Z,15.70
2018-10-12T20:51:19.093Z,15.70
2018-10-12T20:53:47.381Z,15.70
2018-10-12T20:56:15.575Z,15.70
2018-10-12T20:58:43.755Z,15.60
2018-10-12T21:01:11.965Z,15.60
2018-10-12T21:03:40.170Z,15.60
2018-10-12T21:06:08.441Z,15.60
2018-10-12T21:08:36.648Z,15.50
2018-10-12T21:11:05.058Z,15.50
2018-10-12T21:13:33.268Z,15.40
2018-10-12T21:16:01.457Z,15.40
2018-10-12T21:18:29.912Z,15.30
2018-10-12T21:20:58.089Z,15.30
2018-10-12T21:23:26.293Z,15.30
2018-10-12T21:25:54.638Z,15.20
2018-10-12T21:28:22.928Z,15.20
2018-10-12T21:30:51.109Z,15.20
2018-10-12T21:33:19.407Z,15.10
2018-10-12T21:35:47.628Z,15.10
2018-10-12T21:38:15.820Z,15.00
2018-10-12T21:40:44.053Z,15.00
2018-10-12T21:43:12.499Z,15.00
2018-10-12T21:45:40.783Z,15.00
2018-10-12T21:48:09.181Z,15.00
2018-10-12T21:50:37.462Z,15.00
2018-10-12T21:53:05.714Z,14.90
2018-10-12T21:55:33.928Z,14.90
2018-10-12T21:58:03.155Z,14.90
2018-10-12T22:00:31.353Z,14.90
2018-10-12T22:02:59.546Z,14.80
2018-10-12T22:05:28.054Z,14.80
2018-10-12T22:07:56.266Z,14.80
2018-10-12T22:10:24.439Z,14.70
2018-10-12T22:12:52.665Z,14.70
2018-10-12T22:15:20.861Z,14.70
2018-10-12T22:17:49.123Z,14.70
2018-10-12T22:20:17.404Z,14.70
2018-10-12T22:22:46.297Z,14.70
2018-10-12T22:25:14.595Z,14.70
2018-10-12T22:27:42.941Z,14.70
2018-10-12T22:30:11.153Z,14.60
2018-10-12T22:32:39.373Z,14.60
2018-10-12T22:35:07.608Z,14.60
2018-10-12T22:37:35.904Z,14.60
2018-10-12T22:40:04.323Z,14.60
2018-10-12T22:42:32.627Z,14.50
2018-10-12T22:45:00.941Z,14.50
2018-10-12T22:47:29.373Z,14.50
2018-10-12T22:49:57.529Z,14.50
2018-10-12T22:52:25.754Z,14.40
2018-10-12T22:54:54.033Z,14.40
2018-10-12T22:57:22.291Z,14.40
2018-10-12T22:59:50.863Z,14.40
2018-10-12T23:02:19.406Z,14.40
2018-10-12T23:04:47.795Z,14.30
2018-10-12T23:07:15.972Z,14.30
2018-10-12T23:09:44.311Z,14.30
2018-10-12T23:12:12.494Z,14.30
2018-10-12T23:14:40.774Z,14.30
2018-10-12T23:17:08.989Z,14.30
2018-10-12T23:19:37.160Z,14.30
2018-10-12T23:22:05.497Z,14.20
2018-10-12T23:24:33.690Z,14.20
2018-10-12T23:27:02.115Z,14.20
2018-10-12T23:29:30.737Z,14.10
2018-10-12T23:31:59.052Z,14.10
2018-10-12T23:34:27.305Z,14.10
2018-10-12T23:36:55.651Z,14.10
2018-10-12T23:39:23.950Z,14.10
2018-10-12T23:41:52.166Z,14.10
2018-10-12T23:44:20.634Z,14.10
2018-10-12T23:46:48.962Z,14.00
2018-10-12T23:49:17.340Z,14.10
2018-10-12T23:51:45.557Z,14.10
2018-10-12T23:54:13.775Z,14.10
2018-10-12T23:56:42.118Z,14.00
2018-10-12T23:59:10.572Z,14.00
